createdAt,value
2023-01-09T00:01:14.866Z,0.70
2023-01-09T00:03:48.446Z,0.50
2023-01-09T00:06:19.782Z,0.50
2023-01-09T00:08:50.640Z,0.65
2023-01-09T00:11:21.985Z,0.57
2023-01-09T00:13:55.322Z,0.50
2023-01-09T00:16:25.857Z,0.70
2023-01-09T00:19:00.459Z,0.70
2023-01-09T00:21:33.378Z,0.60
2023-01-09T00:24:03.906Z,0.50
2023-01-09T00:26:35.806Z,0.70
2023-01-09T00:29:07.713Z,0.77
2023-01-09T00:31:38.375Z,0.60
2023-01-09T00:34:13.279Z,0.47
2023-01-09T00:36:44.022Z,0.50
2023-01-09T00:39:14.779Z,0.55
2023-01-09T00:41:50.036Z,0.60
2023-01-09T00:44:26.252Z,0.80
2023-01-09T00:46:59.860Z,0.43
2023-01-09T00:49:36.882Z,0.43
2023-01-09T00:52:10.233Z,0.63
2023-01-09T00:54:41.434Z,0.40
2023-01-09T00:57:15.968Z,0.55
2023-01-09T00:59:47.102Z,0.45
2023-01-09T01:02:23.775Z,0.80
2023-01-09T01:05:12.540Z,0.40
2023-01-09T01:07:50.575Z,0.52
2023-01-09T01:10:24.013Z,0.35
2023-01-09T01:12:55.428Z,0.40
2023-01-09T01:15:29.410Z,0.30
2023-01-09T01:18:00.039Z,0.50
2023-01-09T01:20:42.724Z,0.40
2023-01-09T01:23:13.774Z,0.50
2023-01-09T01:25:45.373Z,0.60
2023-01-09T01:28:15.916Z,0.63
2023-01-09T01:30:46.612Z,0.45
2023-01-09T01:33:17.337Z,0.77
2023-01-09T01:35:50.765Z,0.50
2023-01-09T01:38:21.171Z,0.85
2023-01-09T01:40:56.311Z,0.60
2023-01-09T01:43:27.346Z,0.60
2023-01-09T01:45:58.198Z,0.70
2023-01-09T01:48:32.531Z,0.52
2023-01-09T01:51:10.150Z,0.50
2023-01-09T01:53:44.375Z,0.40
2023-01-09T01:58:54.827Z,0.40
2023-01-09T02:01:27.359Z,0.50
2023-01-09T02:04:00.172Z,0.40
2023-01-09T02:06:36.486Z,0.50
2023-01-09T02:09:15.435Z,0.60
2023-01-09T02:11:48.219Z,0.50
2023-01-09T02:14:19.444Z,0.40
2023-01-09T02:17:07.811Z,0.40
2023-01-09T02:20:11.231Z,0.47
2023-01-09T02:23:03.279Z,0.40
2023-01-09T02:26:03.268Z,0.40
2023-01-09T02:28:58.485Z,0.47
2023-01-09T02:31:40.556Z,0.35
2023-01-09T02:34:20.666Z,0.60
2023-01-09T02:36:59.021Z,0.50
2023-01-09T02:39:36.136Z,0.43
2023-01-09T02:42:12.430Z,0.50
2023-01-09T02:44:43.148Z,0.40
2023-01-09T02:47:47.673Z,0.40
2023-01-09T02:50:39.622Z,0.52
2023-01-09T02:53:50.421Z,0.40
2023-01-09T02:56:36.580Z,0.50
2023-01-09T02:59:22.509Z,0.57
2023-01-09T03:02:05.726Z,0.20
2023-01-09T03:04:50.887Z,0.43
2023-01-09T03:07:28.107Z,0.30
2023-01-09T03:10:04.753Z,0.45
2023-01-09T03:12:38.229Z,0.35
2023-01-09T03:15:14.151Z,0.43
2023-01-09T03:17:49.657Z,0.43
2023-01-09T03:20:27.852Z,0.40
2023-01-09T03:23:01.508Z,0.40
2023-01-09T03:25:33.850Z,0.73
2023-01-09T03:28:07.665Z,0.40
2023-01-09T03:30:39.783Z,0.50
2023-01-09T03:33:12.496Z,0.57
2023-01-09T03:35:45.595Z,0.60
2023-01-09T03:38:18.618Z,0.30
2023-01-09T03:40:49.370Z,0.50
2023-01-09T03:43:22.463Z,0.40
2023-01-09T03:45:53.317Z,0.50
2023-01-09T03:48:26.010Z,0.40
2023-01-09T03:50:59.457Z,0.47
2023-01-09T03:53:31.252Z,0.60
2023-01-09T03:56:02.433Z,0.43
2023-01-09T03:58:32.807Z,0.20
2023-01-09T04:01:05.288Z,0.30
2023-01-09T04:03:36.366Z,0.25
2023-01-09T04:06:10.784Z,0.50
2023-01-09T04:08:42.873Z,0.35
2023-01-09T04:11:13.551Z,0.40
2023-01-09T04:13:45.160Z,0.30
2023-01-09T04:16:15.694Z,0.30
2023-01-09T04:18:46.214Z,0.35
2023-01-09T04:21:19.308Z,0.20
2023-01-09T04:23:52.151Z,0.30
2023-01-09T04:26:22.735Z,0.30
2023-01-09T04:28:53.340Z,0.17
2023-01-09T04:31:25.474Z,0.43
2023-01-09T04:33:56.121Z,0.40
2023-01-09T04:36:29.201Z,0.40
2023-01-09T04:38:59.656Z,0.20
2023-01-09T04:41:42.785Z,0.25
2023-01-09T04:44:13.288Z,0.20
2023-01-09T04:46:43.869Z,0.20
2023-01-09T04:49:15.732Z,0.10
2023-01-09T04:51:48.925Z,0.25
2023-01-09T04:54:27.876Z,0.20
2023-01-09T04:56:58.609Z,0.20
2023-01-09T04:59:29.198Z,0.50
2023-01-09T05:02:01.397Z,0.10
2023-01-09T05:04:32.012Z,0.20
2023-01-09T05:07:07.920Z,0.20
2023-01-09T05:09:38.456Z,0.20
2023-01-09T05:12:09.690Z,0.30
2023-01-09T05:14:40.075Z,0.10
2023-01-09T05:17:11.393Z,0.52
2023-01-09T05:19:42.525Z,0.30
2023-01-09T05:22:15.619Z,0.20
2023-01-09T05:24:46.378Z,0.30
2023-01-09T05:27:16.752Z,0.28
2023-01-09T05:29:47.429Z,0.10
2023-01-09T05:32:17.861Z,0.10
2023-01-09T05:34:54.203Z,0.30
2023-01-09T05:37:27.179Z,0.30
2023-01-09T05:39:58.347Z,0.30
2023-01-09T05:42:29.412Z,0.22
2023-01-09T05:44:59.877Z,0.30
2023-01-09T05:47:30.841Z,0.28
2023-01-09T05:50:01.460Z,0.50
2023-01-09T05:52:36.748Z,0.40
2023-01-09T05:55:08.800Z,0.70
2023-01-09T05:57:41.726Z,0.40
2023-01-09T06:00:15.978Z,0.45
2023-01-09T06:05:20.963Z,0.50
2023-01-09T06:07:54.212Z,0.40
2023-01-09T06:10:24.639Z,0.63
2023-01-09T06:12:55.999Z,0.30
2023-01-09T06:15:27.382Z,0.60
2023-01-09T06:17:58.181Z,0.47
2023-01-09T06:20:28.711Z,0.40
2023-01-09T06:23:04.308Z,0.65
2023-01-09T06:25:35.031Z,0.60
2023-01-09T06:28:05.579Z,0.55
2023-01-09T06:30:36.085Z,0.73
2023-01-09T06:33:06.718Z,0.50
2023-01-09T06:35:37.622Z,0.60
2023-01-09T06:38:11.273Z,0.50
2023-01-09T06:40:42.980Z,0.65
2023-01-09T06:43:14.444Z,0.77
2023-01-09T06:45:46.299Z,0.60
2023-01-09T06:48:18.148Z,0.60
2023-01-09T06:50:50.679Z,0.50
2023-01-09T06:53:31.367Z,0.50
2023-01-09T06:56:02.726Z,0.50
2023-01-09T06:58:33.772Z,0.70
2023-01-09T07:01:04.393Z,0.70
2023-01-09T07:03:35.035Z,0.65
2023-01-09T07:06:08.309Z,0.70
2023-01-09T07:08:41.413Z,0.80
2023-01-09T07:11:15.839Z,0.90
2023-01-09T07:13:48.786Z,0.80
2023-01-09T07:16:19.268Z,0.95
2023-01-09T07:18:49.663Z,1.13
2023-01-09T07:21:20.438Z,1.35
2023-01-09T07:23:54.158Z,1.02
2023-01-09T07:26:25.539Z,1.20
2023-01-09T07:28:55.895Z,1.13
2023-01-09T07:31:26.407Z,1.30
2023-01-09T07:33:56.912Z,1.60
2023-01-09T07:36:27.396Z,1.40
2023-01-09T07:39:00.463Z,1.55
2023-01-09T07:41:30.882Z,1.40
2023-01-09T07:44:01.375Z,2.10
2023-01-09T07:46:31.941Z,1.20
2023-01-09T07:49:02.428Z,1.20
2023-01-09T07:51:32.868Z,1.25
2023-01-09T07:54:06.019Z,1.30
2023-01-09T07:56:36.443Z,1.35
2023-01-09T07:59:07.051Z,1.60
2023-01-09T08:01:38.652Z,1.20
2023-01-09T08:04:10.023Z,1.00
2023-01-09T08:06:44.536Z,1.00
2023-01-09T08:11:57.534Z,1.05
2023-01-09T08:14:28.120Z,1.13
2023-01-09T08:16:58.503Z,1.17
2023-01-09T08:19:30.434Z,2.00
2023-01-09T08:22:00.853Z,1.80
2023-01-09T08:24:33.823Z,1.73
2023-01-09T08:27:04.298Z,1.60
2023-01-09T08:29:38.537Z,2.80
2023-01-09T08:34:41.758Z,1.67
2023-01-09T08:37:12.235Z,1.75
2023-01-09T08:39:45.816Z,1.85
2023-01-09T08:42:30.784Z,1.90
2023-01-09T08:45:13.695Z,2.03
2023-01-09T08:47:44.591Z,3.72
2023-01-09T08:50:18.378Z,3.08
2023-01-09T08:52:49.029Z,1.77
2023-01-09T08:55:36.835Z,2.10
2023-01-09T08:58:07.544Z,1.90
2023-01-09T09:00:40.319Z,2.17
2023-01-09T09:03:12.057Z,2.10
2023-01-09T09:05:42.557Z,1.65
2023-01-09T09:08:13.139Z,1.38
2023-01-09T09:10:48.232Z,1.50
2023-01-09T09:13:18.684Z,1.08
2023-01-09T09:15:49.098Z,1.75
2023-01-09T09:18:20.603Z,1.88
2023-01-09T09:20:51.031Z,1.70
2023-01-09T09:23:22.762Z,1.50
2023-01-09T09:25:56.159Z,1.02
2023-01-09T09:28:26.593Z,1.40
2023-01-09T09:30:57.225Z,1.20
2023-01-09T09:33:27.958Z,1.08
2023-01-09T09:35:58.427Z,1.67
2023-01-09T09:38:29.053Z,1.10
2023-01-09T09:41:35.134Z,1.30
2023-01-09T09:44:36.361Z,1.27
2023-01-09T09:47:14.858Z,0.70
2023-01-09T09:49:54.365Z,1.17
2023-01-09T09:52:38.842Z,0.70
2023-01-09T09:55:22.040Z,0.80
2023-01-09T09:58:05.198Z,0.82
2023-01-09T10:00:38.268Z,0.95
2023-01-09T10:03:18.401Z,0.45
2023-01-09T10:05:53.893Z,0.60
2023-01-09T10:08:33.071Z,0.93
2023-01-09T10:11:04.209Z,0.85
2023-01-09T10:13:49.657Z,0.60
2023-01-09T10:16:31.961Z,0.60
2023-01-09T10:19:16.241Z,0.75
2023-01-09T10:21:55.356Z,0.60
2023-01-09T10:24:42.930Z,0.52
2023-01-09T10:27:27.510Z,0.55
2023-01-09T10:30:14.733Z,0.35
2023-01-09T10:33:17.313Z,0.57
2023-01-09T10:36:35.480Z,0.35
2023-01-09T10:39:12.170Z,0.65
2023-01-09T10:41:51.336Z,0.68
2023-01-09T10:44:29.597Z,0.60
2023-01-09T10:47:04.988Z,0.70
2023-01-09T10:49:35.388Z,0.75
2023-01-09T10:52:16.772Z,0.75
2023-01-09T10:54:55.035Z,0.60
2023-01-09T10:57:43.141Z,0.70
2023-01-09T11:00:23.215Z,0.93
2023-01-09T11:02:58.379Z,0.40
2023-01-09T11:05:32.926Z,0.55
2023-01-09T11:08:16.537Z,0.60
2023-01-09T11:10:51.164Z,0.52
2023-01-09T11:13:24.580Z,0.60
2023-01-09T11:16:09.313Z,0.60
2023-01-09T11:18:52.795Z,0.50
2023-01-09T11:21:36.032Z,0.32
2023-01-09T11:24:36.374Z,0.40
2023-01-09T11:27:24.209Z,0.50
2023-01-09T11:30:22.596Z,0.47
2023-01-09T11:32:53.018Z,0.30
2023-01-09T11:35:34.083Z,0.40
2023-01-09T11:38:17.358Z,0.45
2023-01-09T11:40:51.868Z,0.30
2023-01-09T11:43:37.827Z,0.65
2023-01-09T11:46:13.232Z,0.30
2023-01-09T11:48:57.348Z,0.65
2023-01-09T11:51:32.369Z,0.40
2023-01-09T11:54:20.281Z,0.80
2023-01-09T11:56:52.708Z,0.70
2023-01-09T11:59:25.663Z,0.40
2023-01-09T12:02:26.022Z,0.73
2023-01-09T12:05:09.630Z,0.50
2023-01-09T12:08:00.120Z,0.35
2023-01-09T12:10:55.242Z,0.30
2023-01-09T12:13:50.160Z,0.40
2023-01-09T12:16:34.080Z,0.32
2023-01-09T12:19:23.099Z,0.50
2023-01-09T12:22:05.035Z,0.55
2023-01-09T12:25:09.735Z,0.35
2023-01-09T12:27:59.495Z,0.30
2023-01-09T12:30:44.185Z,0.50
2023-01-09T12:33:31.272Z,0.50
2023-01-09T12:36:33.548Z,0.50
2023-01-09T12:39:16.937Z,0.50
2023-01-09T12:42:13.797Z,0.20
2023-01-09T12:44:54.075Z,0.28
2023-01-09T12:47:52.672Z,0.55
2023-01-09T12:50:43.527Z,0.28
2023-01-09T12:53:22.543Z,0.50
2023-01-09T12:55:58.765Z,0.57
2023-01-09T12:58:41.841Z,0.38
2023-01-09T13:01:18.120Z,0.30
2023-01-09T13:03:56.001Z,0.30
2023-01-09T13:06:29.606Z,0.50
2023-01-09T13:09:10.763Z,0.60
2023-01-09T13:11:47.417Z,0.60
2023-01-09T13:14:27.446Z,0.60
2023-01-09T13:17:00.704Z,0.38
2023-01-09T13:19:36.961Z,0.57
2023-01-09T13:22:12.034Z,0.40
2023-01-09T13:25:05.280Z,0.70
2023-01-09T13:27:40.336Z,0.60
2023-01-09T13:30:41.371Z,0.45
2023-01-09T13:33:22.780Z,0.50
2023-01-09T13:35:55.737Z,0.47
2023-01-09T13:38:29.570Z,0.38
2023-01-09T13:41:32.597Z,0.57
2023-01-09T13:44:05.584Z,0.50
2023-01-09T13:46:44.103Z,0.55
2023-01-09T13:49:33.412Z,0.40
2023-01-09T13:52:08.299Z,0.43
2023-01-09T13:55:04.245Z,0.60
2023-01-09T13:57:37.382Z,0.47
2023-01-09T14:00:44.071Z,0.43
2023-01-09T14:03:26.020Z,0.50
2023-01-09T14:06:24.296Z,0.40
2023-01-09T14:09:15.728Z,0.55
2023-01-09T14:11:48.699Z,0.70
2023-01-09T14:14:33.264Z,0.50
2023-01-09T14:17:05.627Z,0.60
2023-01-09T14:19:42.744Z,0.20
2023-01-09T14:22:29.274Z,0.40
2023-01-09T14:25:05.137Z,0.40
2023-01-09T14:28:11.635Z,0.40
2023-01-09T14:31:09.593Z,0.38
2023-01-09T14:33:43.696Z,0.55
2023-01-09T14:36:29.338Z,0.30
2023-01-09T14:39:13.006Z,0.30
2023-01-09T14:42:12.294Z,0.50
2023-01-09T14:44:55.456Z,0.40
2023-01-09T14:47:55.263Z,0.50
2023-01-09T14:50:34.983Z,0.50
2023-01-09T14:53:14.030Z,0.60
2023-01-09T14:55:54.076Z,0.55
2023-01-09T14:58:26.835Z,0.50
2023-01-09T15:01:05.172Z,0.40
2023-01-09T15:03:40.795Z,0.40
2023-01-09T15:06:20.337Z,0.60
2023-01-09T15:08:59.107Z,0.50
2023-01-09T15:11:32.048Z,0.80
2023-01-09T15:14:05.211Z,0.47
2023-01-09T15:16:36.346Z,0.47
2023-01-09T15:19:10.542Z,0.68
2023-01-09T15:21:43.653Z,0.57
2023-01-09T15:24:27.184Z,0.60
2023-01-09T15:26:59.935Z,0.55
2023-01-09T15:29:31.576Z,1.00
2023-01-09T15:32:08.037Z,0.85
2023-01-09T15:34:39.639Z,0.90
2023-01-09T15:37:27.542Z,0.80
2023-01-09T15:40:05.631Z,0.70
2023-01-09T15:42:52.147Z,0.73
2023-01-09T15:45:29.179Z,0.40
2023-01-09T15:48:20.885Z,0.82
2023-01-09T15:50:54.408Z,1.52
2023-01-09T15:53:27.117Z,0.90
2023-01-09T15:56:30.509Z,0.70
2023-01-09T15:59:01.909Z,0.73
2023-01-09T16:01:33.852Z,1.05
2023-01-09T16:04:17.052Z,1.13
2023-01-09T16:06:50.683Z,0.80
2023-01-09T16:09:29.248Z,0.98
2023-01-09T16:12:06.682Z,1.23
2023-01-09T16:14:39.877Z,0.50
2023-01-09T16:17:18.386Z,0.70
2023-01-09T16:19:51.128Z,0.57
2023-01-09T16:22:24.580Z,0.70
2023-01-09T16:25:00.436Z,0.68
2023-01-09T16:27:34.548Z,0.60
2023-01-09T16:30:09.424Z,0.50
2023-01-09T16:32:51.941Z,0.68
2023-01-09T16:35:26.364Z,0.73
2023-01-09T16:37:56.926Z,0.50
2023-01-09T16:40:29.978Z,0.52
2023-01-09T16:43:01.742Z,0.63
2023-01-09T16:45:35.857Z,0.43
2023-01-09T16:50:44.242Z,0.43
2023-01-09T16:53:18.678Z,0.70
2023-01-09T16:55:52.208Z,0.93
2023-01-09T16:58:28.817Z,0.70
2023-01-09T17:00:59.470Z,0.50
2023-01-09T17:03:30.947Z,0.70
2023-01-09T17:06:04.209Z,0.70
2023-01-09T17:08:37.074Z,0.93
2023-01-09T17:11:07.996Z,0.60
2023-01-09T17:13:41.083Z,0.60
2023-01-09T17:16:13.770Z,0.80
2023-01-09T17:18:44.289Z,0.50
2023-01-09T17:21:29.068Z,0.60
2023-01-09T17:24:12.476Z,0.50
2023-01-09T17:27:01.048Z,0.90
2023-01-09T17:29:37.328Z,0.60
2023-01-09T17:32:08.443Z,0.80
2023-01-09T17:34:40.919Z,0.82
2023-01-09T17:37:16.087Z,0.60
2023-01-09T17:39:46.835Z,0.90
2023-01-09T17:42:17.284Z,0.60
2023-01-09T17:44:50.217Z,0.82
2023-01-09T17:47:20.697Z,0.50
2023-01-09T17:49:51.468Z,0.40
2023-01-09T17:52:22.137Z,0.68
2023-01-09T17:54:53.001Z,0.80
2023-01-09T17:57:23.687Z,0.50
2023-01-09T17:59:56.848Z,0.52
2023-01-09T18:02:27.341Z,0.60
2023-01-09T18:04:57.725Z,0.35
2023-01-09T18:07:28.208Z,0.73
2023-01-09T18:09:58.663Z,0.60
2023-01-09T18:12:29.252Z,0.47
2023-01-09T18:15:02.809Z,0.60
2023-01-09T18:17:33.330Z,0.52
2023-01-09T18:20:04.049Z,0.40
2023-01-09T18:22:35.185Z,0.60
2023-01-09T18:25:06.258Z,0.63
2023-01-09T18:27:41.162Z,0.70
2023-01-09T18:30:15.392Z,0.70
2023-01-09T18:32:45.924Z,0.90
2023-01-09T18:35:19.849Z,0.60
2023-01-09T18:37:50.861Z,0.55
2023-01-09T18:40:22.405Z,0.90
2023-01-09T18:42:53.033Z,1.08
2023-01-09T18:45:26.795Z,1.10
2023-01-09T18:47:58.089Z,0.98
2023-01-09T18:50:28.645Z,0.88
2023-01-09T18:52:59.801Z,1.27
2023-01-09T18:55:30.208Z,1.02
2023-01-09T18:58:00.953Z,0.88
2023-01-09T19:00:34.244Z,1.00
2023-01-09T19:03:07.273Z,0.83
2023-01-09T19:05:37.811Z,0.75
2023-01-09T19:08:09.096Z,0.40
2023-01-09T19:10:39.835Z,0.75
2023-01-09T19:13:10.262Z,0.90
2023-01-09T19:15:45.496Z,1.27
2023-01-09T19:18:17.564Z,1.52
2023-01-09T19:20:47.969Z,0.98
2023-01-09T19:23:21.589Z,1.42
2023-01-09T19:25:53.888Z,1.05
2023-01-09T19:28:24.376Z,1.38
2023-01-09T19:31:00.351Z,1.30
2023-01-09T19:33:30.826Z,1.07
2023-01-09T19:36:01.280Z,1.25
2023-01-09T19:38:32.121Z,1.05
2023-01-09T19:41:13.510Z,0.85
2023-01-09T19:43:44.247Z,0.60
2023-01-09T19:46:19.928Z,0.82
2023-01-09T19:48:51.663Z,0.57
2023-01-09T19:51:25.581Z,0.45
2023-01-09T19:56:30.390Z,0.80
2023-01-09T19:59:02.964Z,0.93
2023-01-09T20:01:38.906Z,0.57
2023-01-09T20:04:14.033Z,0.80
2023-01-09T20:06:46.703Z,0.70
2023-01-09T20:09:21.748Z,0.85
2023-01-09T20:11:58.522Z,1.35
2023-01-09T20:14:29.941Z,1.48
2023-01-09T20:17:04.468Z,1.38
2023-01-09T20:19:35.887Z,1.50
2023-01-09T20:22:07.677Z,1.48
2023-01-09T20:24:40.292Z,1.38
2023-01-09T20:27:11.818Z,1.52
2023-01-09T20:29:42.398Z,1.60
2023-01-09T20:32:15.520Z,1.48
2023-01-09T20:34:49.240Z,2.70
2023-01-09T20:37:20.341Z,1.70
2023-01-09T20:39:52.993Z,1.90
2023-01-09T20:42:23.480Z,1.85
2023-01-09T20:44:55.768Z,3.25
2023-01-09T20:47:29.133Z,2.25
2023-01-09T20:49:59.673Z,2.15
2023-01-09T20:52:30.231Z,1.83
2023-01-09T20:55:00.966Z,2.45
2023-01-09T20:57:31.956Z,1.73
2023-01-09T21:00:02.611Z,1.40
2023-01-09T21:02:35.927Z,1.77
2023-01-09T21:05:07.041Z,1.52
2023-01-09T21:07:37.466Z,1.60
2023-01-09T21:10:12.084Z,1.27
2023-01-09T21:12:42.721Z,1.90
2023-01-09T21:15:16.734Z,2.05
2023-01-09T21:17:52.380Z,1.50
2023-01-09T21:20:23.057Z,2.17
2023-01-09T21:22:54.058Z,1.55
2023-01-09T21:25:24.922Z,1.38
2023-01-09T21:27:55.501Z,1.80
2023-01-09T21:30:26.055Z,1.90
2023-01-09T21:32:59.108Z,1.70
2023-01-09T21:35:29.643Z,2.05
2023-01-09T21:38:01.197Z,1.95
2023-01-09T21:40:31.982Z,2.53
2023-01-09T21:43:15.214Z,2.47
2023-01-09T21:45:58.457Z,2.55
2023-01-09T21:48:31.889Z,1.88
2023-01-09T21:51:05.154Z,1.67
2023-01-09T21:53:35.634Z,2.40
2023-01-09T21:56:06.781Z,2.28
2023-01-09T21:58:37.220Z,3.63
2023-01-09T22:01:08.180Z,2.95
2023-01-09T22:03:41.594Z,2.97
2023-01-09T22:06:12.307Z,2.30
2023-01-09T22:08:42.757Z,3.20
2023-01-09T22:11:16.014Z,3.00
2023-01-09T22:13:49.975Z,3.83
2023-01-09T22:16:24.700Z,3.08
2023-01-09T22:18:58.385Z,3.05
2023-01-09T22:21:28.840Z,2.95
2023-01-09T22:24:01.571Z,2.38
2023-01-09T22:26:32.853Z,2.85
2023-01-09T22:29:03.507Z,3.30
2023-01-09T22:31:35.033Z,3.38
2023-01-09T22:34:09.061Z,2.80
2023-01-09T22:36:39.702Z,2.95
2023-01-09T22:39:10.123Z,3.13
2023-01-09T22:41:40.609Z,3.05
2023-01-09T22:44:13.334Z,3.30
2023-01-09T22:46:43.780Z,2.58
2023-01-09T22:49:17.061Z,3.65
2023-01-09T22:51:47.687Z,2.17
2023-01-09T22:54:18.362Z,3.08
2023-01-09T22:56:48.935Z,2.80
2023-01-09T22:59:19.499Z,4.05
2023-01-09T23:01:50.241Z,3.30
2023-01-09T23:04:23.629Z,2.05
2023-01-09T23:06:55.035Z,4.27
2023-01-09T23:09:26.712Z,3.60
2023-01-09T23:12:06.786Z,2.40
2023-01-09T23:14:39.723Z,3.72
2023-01-09T23:17:12.972Z,2.92
2023-01-09T23:19:46.177Z,2.50
2023-01-09T23:22:16.567Z,4.30
2023-01-09T23:24:48.006Z,2.53
2023-01-09T23:27:21.088Z,2.95
2023-01-09T23:29:51.688Z,4.07
2023-01-09T23:32:23.145Z,2.50
2023-01-09T23:34:56.294Z,2.20
2023-01-09T23:37:30.239Z,3.13
2023-01-09T23:40:01.074Z,3.70
2023-01-09T23:42:44.216Z,3.42
2023-01-09T23:45:14.854Z,3.80
2023-01-09T23:47:45.554Z,3.28
2023-01-09T23:50:19.122Z,3.30
2023-01-09T23:52:49.578Z,3.80
2023-01-09T23:55:21.031Z,2.83
2023-01-09T23:57:54.436Z,3.42
